sensor_id;sensor_type;location;lat;lon;timestamp;P1;durP1;ratioP1;P2;durP2;ratioP2
7941;SDS011;4016;50.758;7.150;2023-06-24T00:01:31;6.20;;;5.60;;
7941;SDS011;4016;50.758;7.150;2023-06-24T00:06:33;6.30;;;5.70;;
7941;SDS011;4016;50.758;7.150;2023-06-24T00:11:34;6.07;;;5.45;;
7941;SDS011;4016;50.758;7.150;2023-06-24T00:16:34;6.70;;;6.03;;
7941;SDS011;4016;50.758;7.150;2023-06-24T00:21:36;6.30;;;5.70;;
7941;SDS011;4016;50.758;7.150;2023-06-24T00:26:37;6.93;;;5.50;;
7941;SDS011;4016;50.758;7.150;2023-06-24T00:31:37;5.90;;;5.40;;
7941;SDS011;4016;50.758;7.150;2023-06-24T00:36:38;6.33;;;5.73;;
7941;SDS011;4016;50.758;7.150;2023-06-24T00:41:38;7.00;;;6.07;;
7941;SDS011;4016;50.758;7.150;2023-06-24T00:46:39;6.80;;;6.03;;
7941;SDS011;4016;50.758;7.150;2023-06-24T00:51:40;6.22;;;5.63;;
7941;SDS011;4016;50.758;7.150;2023-06-24T00:56:47;6.73;;;6.03;;
7941;SDS011;4016;50.758;7.150;2023-06-24T01:01:47;7.33;;;6.30;;
7941;SDS011;4016;50.758;7.150;2023-06-24T01:06:49;6.43;;;5.83;;
7941;SDS011;4016;50.758;7.150;2023-06-24T01:11:50;6.00;;;5.40;;
7941;SDS011;4016;50.758;7.150;2023-06-24T01:16:59;6.57;;;5.90;;
7941;SDS011;4016;50.758;7.150;2023-06-24T01:33:22;6.57;;;5.50;;
7941;SDS011;4016;50.758;7.150;2023-06-24T01:38:36;6.27;;;5.70;;
7941;SDS011;4016;50.758;7.150;2023-06-24T01:43:42;5.97;;;5.37;;
7941;SDS011;4016;50.758;7.150;2023-06-24T01:48:43;7.40;;;6.17;;
7941;SDS011;4016;50.758;7.150;2023-06-24T01:53:49;6.20;;;5.60;;
7941;SDS011;4016;50.758;7.150;2023-06-24T01:58:54;6.70;;;5.93;;
7941;SDS011;4016;50.758;7.150;2023-06-24T02:03:57;6.33;;;5.73;;
7941;SDS011;4016;50.758;7.150;2023-06-24T02:09:00;6.90;;;6.23;;
7941;SDS011;4016;50.758;7.150;2023-06-24T02:14:01;6.77;;;6.13;;
7941;SDS011;4016;50.758;7.150;2023-06-24T02:19:04;6.60;;;5.50;;
7941;SDS011;4016;50.758;7.150;2023-06-24T02:24:06;6.33;;;5.73;;
7941;SDS011;4016;50.758;7.150;2023-06-24T02:29:10;6.27;;;5.67;;
7941;SDS011;4016;50.758;7.150;2023-06-24T02:34:12;7.90;;;6.40;;
7941;SDS011;4016;50.758;7.150;2023-06-24T02:39:13;6.10;;;5.50;;
7941;SDS011;4016;50.758;7.150;2023-06-24T02:44:13;6.33;;;5.77;;
7941;SDS011;4016;50.758;7.150;2023-06-24T02:49:15;5.80;;;5.20;;
7941;SDS011;4016;50.758;7.150;2023-06-24T02:54:17;6.53;;;5.93;;
7941;SDS011;4016;50.758;7.150;2023-06-24T02:59:18;5.30;;;4.87;;
7941;SDS011;4016;50.758;7.150;2023-06-24T03:04:22;6.53;;;5.67;;
7941;SDS011;4016;50.758;7.150;2023-06-24T03:09:22;6.43;;;5.70;;
7941;SDS011;4016;50.758;7.150;2023-06-24T03:14:23;7.57;;;6.10;;
7941;SDS011;4016;50.758;7.150;2023-06-24T03:19:23;6.47;;;5.87;;
7941;SDS011;4016;50.758;7.150;2023-06-24T03:24:24;6.10;;;5.50;;
7941;SDS011;4016;50.758;7.150;2023-06-24T03:29:24;6.93;;;6.17;;
7941;SDS011;4016;50.758;7.150;2023-06-24T03:34:25;5.97;;;5.33;;
7941;SDS011;4016;50.758;7.150;2023-06-24T03:39:27;6.73;;;6.13;;
7941;SDS011;4016;50.758;7.150;2023-06-24T03:44:28;6.30;;;5.70;;
7941;SDS011;4016;50.758;7.150;2023-06-24T03:49:28;5.67;;;5.13;;
7941;SDS011;4016;50.758;7.150;2023-06-24T03:54:28;7.43;;;6.67;;
7941;SDS011;4016;50.758;7.150;2023-06-24T03:59:29;6.80;;;6.10;;
7941;SDS011;4016;50.758;7.150;2023-06-24T04:04:29;6.53;;;5.90;;
7941;SDS011;4016;50.758;7.150;2023-06-24T04:09:31;7.13;;;6.43;;
7941;SDS011;4016;50.758;7.150;2023-06-24T04:14:33;7.23;;;6.17;;
7941;SDS011;4016;50.758;7.150;2023-06-24T04:19:33;7.70;;;6.90;;
7941;SDS011;4016;50.758;7.150;2023-06-24T04:24:34;6.30;;;5.50;;
7941;SDS011;4016;50.758;7.150;2023-06-24T04:29:34;7.60;;;6.90;;
7941;SDS011;4016;50.758;7.150;2023-06-24T04:34:34;7.20;;;6.50;;
7941;SDS011;4016;50.758;7.150;2023-06-24T04:39:35;8.17;;;7.23;;
7941;SDS011;4016;50.758;7.150;2023-06-24T04:44:35;8.50;;;6.70;;
7941;SDS011;4016;50.758;7.150;2023-06-24T04:49:36;7.07;;;6.30;;
7941;SDS011;4016;50.758;7.150;2023-06-24T04:54:37;7.57;;;6.73;;
7941;SDS011;4016;50.758;7.150;2023-06-24T04:59:37;7.37;;;6.67;;
7941;SDS011;4016;50.758;7.150;2023-06-24T05:04:38;8.03;;;7.23;;
7941;SDS011;4016;50.758;7.150;2023-06-24T05:09:38;8.47;;;7.20;;
7941;SDS011;4016;50.758;7.150;2023-06-24T05:14:39;10.10;;;6.93;;
7941;SDS011;4016;50.758;7.150;2023-06-24T05:19:39;7.37;;;6.57;;
7941;SDS011;4016;50.758;7.150;2023-06-24T05:24:40;7.67;;;6.97;;
7941;SDS011;4016;50.758;7.150;2023-06-24T05:29:41;8.33;;;7.53;;
7941;SDS011;4016;50.758;7.150;2023-06-24T05:34:41;7.93;;;6.63;;
7941;SDS011;4016;50.758;7.150;2023-06-24T05:39:42;7.60;;;6.90;;
7941;SDS011;4016;50.758;7.150;2023-06-24T05:44:42;7.05;;;6.35;;
7941;SDS011;4016;50.758;7.150;2023-06-24T05:49:42;7.35;;;6.57;;
7941;SDS011;4016;50.758;7.150;2023-06-24T05:54:43;7.20;;;6.50;;
7941;SDS011;4016;50.758;7.150;2023-06-24T05:59:43;7.40;;;6.70;;
7941;SDS011;4016;50.758;7.150;2023-06-24T06:04:44;6.38;;;5.78;;
7941;SDS011;4016;50.758;7.150;2023-06-24T06:09:44;6.43;;;5.60;;
7941;SDS011;4016;50.758;7.150;2023-06-24T06:14:44;6.43;;;5.82;;
7941;SDS011;4016;50.758;7.150;2023-06-24T06:19:45;6.63;;;5.97;;
7941;SDS011;4016;50.758;7.150;2023-06-24T06:24:46;6.78;;;6.18;;
7941;SDS011;4016;50.758;7.150;2023-06-24T06:29:47;6.30;;;5.70;;
7941;SDS011;4016;50.758;7.150;2023-06-24T06:34:47;6.13;;;5.63;;
7941;SDS011;4016;50.758;7.150;2023-06-24T06:39:47;6.35;;;5.55;;
7941;SDS011;4016;50.758;7.150;2023-06-24T06:44:48;6.50;;;5.90;;
7941;SDS011;4016;50.758;7.150;2023-06-24T06:49:48;7.30;;;6.60;;
7941;SDS011;4016;50.758;7.150;2023-06-24T06:54:49;5.95;;;5.35;;
7941;SDS011;4016;50.758;7.150;2023-06-24T06:59:49;6.93;;;6.32;;
7941;SDS011;4016;50.758;7.150;2023-06-24T07:04:51;7.07;;;6.20;;
7941;SDS011;4016;50.758;7.150;2023-06-24T07:09:51;6.45;;;5.85;;
7941;SDS011;4016;50.758;7.150;2023-06-24T07:14:51;8.63;;;6.40;;
7941;SDS011;4016;50.758;7.150;2023-06-24T07:19:52;8.38;;;7.53;;
7941;SDS011;4016;50.758;7.150;2023-06-24T07:24:52;7.55;;;6.72;;
7941;SDS011;4016;50.758;7.150;2023-06-24T07:29:52;7.25;;;6.40;;
7941;SDS011;4016;50.758;7.150;2023-06-24T07:34:53;8.33;;;7.30;;
7941;SDS011;4016;50.758;7.150;2023-06-24T07:39:53;8.17;;;7.00;;
7941;SDS011;4016;50.758;7.150;2023-06-24T07:44:53;8.25;;;7.45;;
7941;SDS011;4016;50.758;7.150;2023-06-24T07:49:54;9.52;;;8.15;;
7941;SDS011;4016;50.758;7.150;2023-06-24T07:54:54;8.55;;;7.75;;
7941;SDS011;4016;50.758;7.150;2023-06-24T07:59:55;8.50;;;7.65;;
7941;SDS011;4016;50.758;7.150;2023-06-24T08:04:55;8.68;;;7.88;;
7941;SDS011;4016;50.758;7.150;2023-06-24T08:09:56;9.75;;;7.35;;
7941;SDS011;4016;50.758;7.150;2023-06-24T08:14:57;8.70;;;7.25;;
7941;SDS011;4016;50.758;7.150;2023-06-24T08:19:57;9.00;;;7.47;;
7941;SDS011;4016;50.758;7.150;2023-06-24T08:24:58;10.70;;;8.40;;
7941;SDS011;4016;50.758;7.150;2023-06-24T08:29:58;8.20;;;7.25;;
7941;SDS011;4016;50.758;7.150;2023-06-24T08:34:59;8.80;;;7.90;;
7941;SDS011;4016;50.758;7.150;2023-06-24T08:39:59;9.27;;;8.15;;
7941;SDS011;4016;50.758;7.150;2023-06-24T08:44:59;10.52;;;7.65;;
7941;SDS011;4016;50.758;7.150;2023-06-24T08:50:21;7.40;;;6.63;;
7941;SDS011;4016;50.758;7.150;2023-06-24T08:55:23;9.05;;;6.90;;
7941;SDS011;4016;50.758;7.150;2023-06-24T09:00:28;9.40;;;6.90;;
7941;SDS011;4016;50.758;7.150;2023-06-24T09:05:29;7.93;;;7.13;;
7941;SDS011;4016;50.758;7.150;2023-06-24T09:15:34;7.47;;;6.80;;
7941;SDS011;4016;50.758;7.150;2023-06-24T09:20:36;7.57;;;6.68;;
7941;SDS011;4016;50.758;7.150;2023-06-24T09:25:44;6.38;;;5.68;;
7941;SDS011;4016;50.758;7.150;2023-06-24T09:31:08;6.30;;;5.70;;
7941;SDS011;4016;50.758;7.150;2023-06-24T09:36:13;6.65;;;5.95;;
7941;SDS011;4016;50.758;7.150;2023-06-24T09:41:14;6.68;;;6.00;;
7941;SDS011;4016;50.758;7.150;2023-06-24T09:46:15;6.97;;;5.70;;
7941;SDS011;4016;50.758;7.150;2023-06-24T09:51:16;6.47;;;5.85;;
7941;SDS011;4016;50.758;7.150;2023-06-24T09:56:17;8.15;;;7.07;;
7941;SDS011;4016;50.758;7.150;2023-06-24T10:01:19;7.07;;;6.38;;
7941;SDS011;4016;50.758;7.150;2023-06-24T10:06:19;6.30;;;5.70;;
7941;SDS011;4016;50.758;7.150;2023-06-24T10:11:20;6.30;;;5.68;;
7941;SDS011;4016;50.758;7.150;2023-06-24T10:16:21;7.53;;;5.68;;
7941;SDS011;4016;50.758;7.150;2023-06-24T10:21:21;6.70;;;6.00;;
7941;SDS011;4016;50.758;7.150;2023-06-24T10:36:39;7.10;;;6.25;;
7941;SDS011;4016;50.758;7.150;2023-06-24T10:41:40;7.57;;;6.88;;
7941;SDS011;4016;50.758;7.150;2023-06-24T10:46:41;6.25;;;5.65;;
7941;SDS011;4016;50.758;7.150;2023-06-24T10:51:41;5.82;;;5.22;;
7941;SDS011;4016;50.758;7.150;2023-06-24T10:56:42;6.45;;;5.80;;
7941;SDS011;4016;50.758;7.150;2023-06-24T11:01:53;5.25;;;4.85;;
7941;SDS011;4016;50.758;7.150;2023-06-24T11:06:58;5.30;;;4.80;;
7941;SDS011;4016;50.758;7.150;2023-06-24T11:11:59;7.22;;;5.68;;
7941;SDS011;4016;50.758;7.150;2023-06-24T11:17:03;5.35;;;4.85;;
7941;SDS011;4016;50.758;7.150;2023-06-24T11:22:03;6.43;;;5.82;;
7941;SDS011;4016;50.758;7.150;2023-06-24T11:27:07;5.18;;;4.57;;
7941;SDS011;4016;50.758;7.150;2023-06-24T11:32:08;6.20;;;5.55;;
7941;SDS011;4016;50.758;7.150;2023-06-24T11:37:12;6.05;;;5.47;;
7941;SDS011;4016;50.758;7.150;2023-06-24T11:42:13;5.35;;;4.85;;
7941;SDS011;4016;50.758;7.150;2023-06-24T11:47:14;5.73;;;5.17;;
7941;SDS011;4016;50.758;7.150;2023-06-24T11:52:14;5.10;;;4.65;;
7941;SDS011;4016;50.758;7.150;2023-06-24T11:57:14;5.75;;;4.90;;
7941;SDS011;4016;50.758;7.150;2023-06-24T12:02:15;5.80;;;5.20;;
7941;SDS011;4016;50.758;7.150;2023-06-24T12:07:15;6.40;;;5.80;;
7941;SDS011;4016;50.758;7.150;2023-06-24T12:12:15;5.80;;;5.30;;
7941;SDS011;4016;50.758;7.150;2023-06-24T12:17:16;5.28;;;4.55;;
7941;SDS011;4016;50.758;7.150;2023-06-24T12:22:16;5.33;;;4.83;;
7941;SDS011;4016;50.758;7.150;2023-06-24T12:27:17;6.70;;;4.78;;
7941;SDS011;4016;50.758;7.150;2023-06-24T12:32:17;5.40;;;4.90;;
7941;SDS011;4016;50.758;7.150;2023-06-24T12:37:17;4.65;;;4.25;;
7941;SDS011;4016;50.758;7.150;2023-06-24T12:42:18;5.28;;;4.78;;
7941;SDS011;4016;50.758;7.150;2023-06-24T12:47:18;5.47;;;4.97;;
7941;SDS011;4016;50.758;7.150;2023-06-24T12:52:19;6.35;;;5.07;;
7941;SDS011;4016;50.758;7.150;2023-06-24T12:57:20;5.47;;;4.90;;
7941;SDS011;4016;50.758;7.150;2023-06-24T13:02:20;5.43;;;4.93;;
7941;SDS011;4016;50.758;7.150;2023-06-24T13:07:21;5.15;;;4.65;;
7941;SDS011;4016;50.758;7.150;2023-06-24T13:12:21;5.50;;;4.63;;
7941;SDS011;4016;50.758;7.150;2023-06-24T13:17:22;5.10;;;4.57;;
7941;SDS011;4016;50.758;7.150;2023-06-24T13:22:22;5.30;;;4.80;;
7941;SDS011;4016;50.758;7.150;2023-06-24T13:27:23;4.70;;;4.30;;
7941;SDS011;4016;50.758;7.150;2023-06-24T13:32:23;4.93;;;4.50;;
7941;SDS011;4016;50.758;7.150;2023-06-24T13:37:24;5.30;;;4.80;;
7941;SDS011;4016;50.758;7.150;2023-06-24T13:42:25;6.13;;;4.88;;
7941;SDS011;4016;50.758;7.150;2023-06-24T13:47:25;14.35;;;5.35;;
7941;SDS011;4016;50.758;7.150;2023-06-24T13:52:26;5.13;;;4.63;;
7941;SDS011;4016;50.758;7.150;2023-06-24T13:57:27;6.30;;;4.88;;
7941;SDS011;4016;50.758;7.150;2023-06-24T14:02:27;5.15;;;4.65;;
7941;SDS011;4016;50.758;7.150;2023-06-24T14:07:27;5.30;;;4.80;;
7941;SDS011;4016;50.758;7.150;2023-06-24T14:12:29;5.15;;;4.65;;
7941;SDS011;4016;50.758;7.150;2023-06-24T14:17:29;5.28;;;4.78;;
7941;SDS011;4016;50.758;7.150;2023-06-24T14:22:30;5.15;;;4.75;;
7941;SDS011;4016;50.758;7.150;2023-06-24T14:27:30;5.07;;;4.57;;
7941;SDS011;4016;50.758;7.150;2023-06-24T14:32:30;4.80;;;4.40;;
7941;SDS011;4016;50.758;7.150;2023-06-24T14:37:31;6.87;;;5.40;;
7941;SDS011;4016;50.758;7.150;2023-06-24T14:42:31;5.47;;;4.97;;
7941;SDS011;4016;50.758;7.150;2023-06-24T14:47:31;6.53;;;5.47;;
7941;SDS011;4016;50.758;7.150;2023-06-24T14:52:32;5.20;;;4.70;;
7941;SDS011;4016;50.758;7.150;2023-06-24T14:57:32;5.23;;;4.70;;
7941;SDS011;4016;50.758;7.150;2023-06-24T15:02:33;7.78;;;4.95;;
7941;SDS011;4016;50.758;7.150;2023-06-24T15:07:34;6.28;;;4.95;;
7941;SDS011;4016;50.758;7.150;2023-06-24T15:12:35;5.22;;;4.75;;
7941;SDS011;4016;50.758;7.150;2023-06-24T15:17:36;6.15;;;4.88;;
7941;SDS011;4016;50.758;7.150;2023-06-24T15:22:40;5.00;;;4.57;;
7941;SDS011;4016;50.758;7.150;2023-06-24T15:27:41;5.43;;;4.82;;
7941;SDS011;4016;50.758;7.150;2023-06-24T15:32:41;5.05;;;4.57;;
7941;SDS011;4016;50.758;7.150;2023-06-24T15:37:42;5.07;;;4.57;;
7941;SDS011;4016;50.758;7.150;2023-06-24T15:42:43;5.47;;;4.57;;
7941;SDS011;4016;50.758;7.150;2023-06-24T15:47:43;5.70;;;4.67;;
7941;SDS011;4016;50.758;7.150;2023-06-24T15:52:43;4.85;;;4.45;;
7941;SDS011;4016;50.758;7.150;2023-06-24T15:57:44;5.90;;;4.77;;
7941;SDS011;4016;50.758;7.150;2023-06-24T16:02:44;4.93;;;4.43;;
7941;SDS011;4016;50.758;7.150;2023-06-24T16:07:44;5.30;;;4.80;;
7941;SDS011;4016;50.758;7.150;2023-06-24T16:12:45;5.78;;;4.95;;
7941;SDS011;4016;50.758;7.150;2023-06-24T16:17:45;5.40;;;4.90;;
7941;SDS011;4016;50.758;7.150;2023-06-24T16:22:46;5.45;;;4.95;;
7941;SDS011;4016;50.758;7.150;2023-06-24T16:27:46;5.00;;;4.50;;
7941;SDS011;4016;50.758;7.150;2023-06-24T16:32:46;5.43;;;4.25;;
7941;SDS011;4016;50.758;7.150;2023-06-24T16:37:47;5.80;;;5.18;;
7941;SDS011;4016;50.758;7.150;2023-06-24T16:42:47;5.20;;;4.70;;
7941;SDS011;4016;50.758;7.150;2023-06-24T16:47:47;4.57;;;4.17;;
7941;SDS011;4016;50.758;7.150;2023-06-24T16:52:48;5.47;;;4.47;;
7941;SDS011;4016;50.758;7.150;2023-06-24T16:57:48;4.88;;;4.43;;
7941;SDS011;4016;50.758;7.150;2023-06-24T17:02:49;5.17;;;4.67;;
7941;SDS011;4016;50.758;7.150;2023-06-24T17:07:49;5.28;;;4.78;;
7941;SDS011;4016;50.758;7.150;2023-06-24T17:12:49;4.90;;;4.50;;
7941;SDS011;4016;50.758;7.150;2023-06-24T17:17:50;4.97;;;4.30;;
7941;SDS011;4016;50.758;7.150;2023-06-24T17:22:50;5.67;;;4.50;;
7941;SDS011;4016;50.758;7.150;2023-06-24T17:27:50;7.55;;;6.70;;
7941;SDS011;4016;50.758;7.150;2023-06-24T17:32:51;5.05;;;4.55;;
7941;SDS011;4016;50.758;7.150;2023-06-24T17:37:51;4.30;;;3.90;;
7941;SDS011;4016;50.758;7.150;2023-06-24T17:42:52;4.40;;;4.00;;
7941;SDS011;4016;50.758;7.150;2023-06-24T17:47:54;4.68;;;4.28;;
7941;SDS011;4016;50.758;7.150;2023-06-24T17:52:54;6.85;;;5.90;;
7941;SDS011;4016;50.758;7.150;2023-06-24T17:57:55;4.60;;;4.10;;
7941;SDS011;4016;50.758;7.150;2023-06-24T18:02:55;6.65;;;6.05;;
7941;SDS011;4016;50.758;7.150;2023-06-24T18:07:56;5.25;;;4.80;;
7941;SDS011;4016;50.758;7.150;2023-06-24T18:12:56;4.63;;;4.00;;
7941;SDS011;4016;50.758;7.150;2023-06-24T18:17:56;4.57;;;3.80;;
7941;SDS011;4016;50.758;7.150;2023-06-24T18:22:57;5.60;;;5.00;;
7941;SDS011;4016;50.758;7.150;2023-06-24T18:27:57;7.28;;;6.57;;
7941;SDS011;4016;50.758;7.150;2023-06-24T18:32:58;5.80;;;5.20;;
7941;SDS011;4016;50.758;7.150;2023-06-24T18:37:58;4.60;;;4.20;;
7941;SDS011;4016;50.758;7.150;2023-06-24T18:42:58;4.70;;;4.30;;
7941;SDS011;4016;50.758;7.150;2023-06-24T18:47:59;4.87;;;4.37;;
7941;SDS011;4016;50.758;7.150;2023-06-24T18:52:59;5.13;;;4.57;;
7941;SDS011;4016;50.758;7.150;2023-06-24T18:57:59;5.83;;;4.80;;
7941;SDS011;4016;50.758;7.150;2023-06-24T19:03:00;4.53;;;4.13;;
7941;SDS011;4016;50.758;7.150;2023-06-24T19:08:00;4.75;;;4.35;;
7941;SDS011;4016;50.758;7.150;2023-06-24T19:13:01;4.50;;;4.10;;
7941;SDS011;4016;50.758;7.150;2023-06-24T19:18:02;4.38;;;3.92;;
7941;SDS011;4016;50.758;7.150;2023-06-24T19:23:02;5.30;;;4.22;;
7941;SDS011;4016;50.758;7.150;2023-06-24T19:28:03;4.22;;;3.83;;
7941;SDS011;4016;50.758;7.150;2023-06-24T19:33:03;4.82;;;4.15;;
7941;SDS011;4016;50.758;7.150;2023-06-24T19:38:04;4.40;;;4.00;;
7941;SDS011;4016;50.758;7.150;2023-06-24T19:43:04;4.25;;;3.88;;
7941;SDS011;4016;50.758;7.150;2023-06-24T19:48:05;4.57;;;4.10;;
7941;SDS011;4016;50.758;7.150;2023-06-24T19:53:05;4.68;;;4.07;;
7941;SDS011;4016;50.758;7.150;2023-06-24T19:58:06;6.00;;;3.95;;
7941;SDS011;4016;50.758;7.150;2023-06-24T20:03:06;5.18;;;4.22;;
7941;SDS011;4016;50.758;7.150;2023-06-24T20:08:07;5.28;;;3.88;;
7941;SDS011;4016;50.758;7.150;2023-06-24T20:13:07;6.22;;;4.93;;
7941;SDS011;4016;50.758;7.150;2023-06-24T20:18:07;5.20;;;4.50;;
7941;SDS011;4016;50.758;7.150;2023-06-24T20:23:08;6.22;;;4.63;;
7941;SDS011;4016;50.758;7.150;2023-06-24T20:28:08;4.85;;;4.45;;
7941;SDS011;4016;50.758;7.150;2023-06-24T20:33:09;4.57;;;4.18;;
7941;SDS011;4016;50.758;7.150;2023-06-24T20:38:09;5.35;;;4.80;;
7941;SDS011;4016;50.758;7.150;2023-06-24T20:43:09;5.30;;;4.80;;
7941;SDS011;4016;50.758;7.150;2023-06-24T20:48:10;4.70;;;4.30;;
7941;SDS011;4016;50.758;7.150;2023-06-24T20:53:10;6.68;;;4.50;;
7941;SDS011;4016;50.758;7.150;2023-06-24T20:58:11;5.57;;;5.07;;
7941;SDS011;4016;50.758;7.150;2023-06-24T21:03:12;5.25;;;4.72;;
7941;SDS011;4016;50.758;7.150;2023-06-24T21:08:12;5.32;;;4.82;;
7941;SDS011;4016;50.758;7.150;2023-06-24T21:13:12;5.35;;;4.85;;
7941;SDS011;4016;50.758;7.150;2023-06-24T21:18:13;5.65;;;4.55;;
7941;SDS011;4016;50.758;7.150;2023-06-24T21:23:13;5.15;;;4.65;;
7941;SDS011;4016;50.758;7.150;2023-06-24T21:28:13;6.22;;;4.95;;
7941;SDS011;4016;50.758;7.150;2023-06-24T21:33:14;5.32;;;4.82;;
7941;SDS011;4016;50.758;7.150;2023-06-24T21:38:14;5.65;;;5.05;;
7941;SDS011;4016;50.758;7.150;2023-06-24T21:43:14;5.82;;;5.22;;
7941;SDS011;4016;50.758;7.150;2023-06-24T21:48:15;5.50;;;5.00;;
7941;SDS011;4016;50.758;7.150;2023-06-24T21:53:15;5.68;;;5.18;;
7941;SDS011;4016;50.758;7.150;2023-06-24T21:58:16;5.85;;;4.82;;
7941;SDS011;4016;50.758;7.150;2023-06-24T22:03:16;5.65;;;5.03;;
7941;SDS011;4016;50.758;7.150;2023-06-24T22:08:17;6.07;;;5.10;;
7941;SDS011;4016;50.758;7.150;2023-06-24T22:13:18;5.50;;;4.82;;
7941;SDS011;4016;50.758;7.150;2023-06-24T22:18:18;6.22;;;5.63;;
7941;SDS011;4016;50.758;7.150;2023-06-24T22:23:19;5.32;;;4.82;;
7941;SDS011;4016;50.758;7.150;2023-06-24T22:28:19;5.77;;;5.17;;
7941;SDS011;4016;50.758;7.150;2023-06-24T22:33:19;4.80;;;4.40;;
7941;SDS011;4016;50.758;7.150;2023-06-24T22:38:20;5.95;;;5.20;;
7941;SDS011;4016;50.758;7.150;2023-06-24T22:43:20;6.65;;;5.25;;
7941;SDS011;4016;50.758;7.150;2023-06-24T22:48:21;5.53;;;5.03;;
7941;SDS011;4016;50.758;7.150;2023-06-24T22:53:21;7.32;;;5.10;;
7941;SDS011;4016;50.758;7.150;2023-06-24T22:58:21;5.82;;;5.05;;
7941;SDS011;4016;50.758;7.150;2023-06-24T23:03:22;5.45;;;4.95;;
7941;SDS011;4016;50.758;7.150;2023-06-24T23:08:22;7.05;;;4.90;;
7941;SDS011;4016;50.758;7.150;2023-06-24T23:13:23;7.32;;;5.22;;
7941;SDS011;4016;50.758;7.150;2023-06-24T23:18:24;5.25;;;4.75;;
7941;SDS011;4016;50.758;7.150;2023-06-24T23:23:25;5.78;;;5.15;;
7941;SDS011;4016;50.758;7.150;2023-06-24T23:28:26;5.57;;;4.95;;
7941;SDS011;4016;50.758;7.150;2023-06-24T23:33:27;5.72;;;5.18;;
7941;SDS011;4016;50.758;7.150;2023-06-24T23:38:28;5.43;;;4.93;;
7941;SDS011;4016;50.758;7.150;2023-06-24T23:43:28;5.00;;;4.50;;
7941;SDS011;4016;50.758;7.150;2023-06-24T23:48:29;5.43;;;4.93;;
7941;SDS011;4016;50.758;7.150;2023-06-24T23:53:29;7.25;;;5.28;;
7941;SDS011;4016;50.758;7.150;2023-06-24T23:58:30;7.10;;;5.70;;
